createdAt,value
2023-05-28T00:00:09.742Z,96871.63
2023-05-28T00:02:42.546Z,96866.66
2023-05-28T00:05:13.951Z,96874.97
2023-05-28T00:07:43.587Z,96868.66
2023-05-28T00:10:12.524Z,96871.41
2023-05-28T00:12:41.686Z,96871.84
2023-05-28T00:15:11.416Z,96868.06
2023-05-28T00:17:40.711Z,96877.19
2023-05-28T00:20:10.191Z,96887.50
2023-05-28T00:22:41.527Z,96888.09
2023-05-28T00:25:13.816Z,96878.44
2023-05-28T00:27:45.054Z,96872.97
2023-05-28T00:30:14.203Z,96870.25
2023-05-28T00:32:43.149Z,96882.69
2023-05-28T00:35:12.185Z,96892.50
2023-05-28T00:37:43.866Z,96878.69
2023-05-28T00:40:13.313Z,96894.66
2023-05-28T00:42:43.015Z,96902.03
2023-05-28T00:45:15.851Z,96890.03
2023-05-28T00:47:45.620Z,96890.28
2023-05-28T00:50:15.444Z,96889.50
2023-05-28T00:52:48.192Z,96892.53
2023-05-28T00:55:18.067Z,96889.53
2023-05-28T00:57:55.890Z,96890.34
2023-05-28T01:00:26.395Z,96886.81
2023-05-28T01:02:55.839Z,96889.22
2023-05-28T01:05:24.939Z,96884.34
2023-05-28T01:07:54.632Z,96892.97
2023-05-28T01:10:23.712Z,96880.19
2023-05-28T01:12:54.587Z,96889.06
2023-05-28T01:15:24.279Z,96885.28
2023-05-28T01:18:01.657Z,96886.94
2023-05-28T01:20:32.546Z,96887.00
2023-05-28T01:23:07.510Z,96880.00
2023-05-28T01:25:49.370Z,96882.34
2023-05-28T01:28:21.711Z,96877.28
2023-05-28T01:30:50.825Z,96883.09
2023-05-28T01:33:20.065Z,96876.47
2023-05-28T01:35:49.664Z,96877.25
2023-05-28T01:38:22.807Z,96878.34
2023-05-28T01:40:56.831Z,96872.25
2023-05-28T01:43:26.721Z,96878.84
2023-05-28T01:45:56.354Z,96879.81
2023-05-28T01:48:26.047Z,96871.88
2023-05-28T01:50:56.339Z,96883.50
2023-05-28T01:53:25.609Z,96885.63
2023-05-28T01:55:57.624Z,96886.53
2023-05-28T01:58:29.222Z,96898.97
2023-05-28T02:01:08.574Z,96883.59
2023-05-28T02:03:37.799Z,96887.31
2023-05-28T02:06:06.960Z,96885.81
2023-05-28T02:08:36.101Z,96881.16
2023-05-28T02:11:05.069Z,96896.16
2023-05-28T02:13:34.240Z,96892.53
2023-05-28T02:16:03.990Z,96891.56
2023-05-28T02:18:33.545Z,96889.81
2023-05-28T02:21:02.650Z,96885.56
2023-05-28T02:23:31.927Z,96878.75
2023-05-28T02:26:00.784Z,96881.88
2023-05-28T02:28:29.749Z,96888.88
2023-05-28T02:30:59.071Z,96882.53
2023-05-28T02:33:28.747Z,96890.66
2023-05-28T02:35:57.876Z,96883.25
2023-05-28T02:38:27.071Z,96881.72
2023-05-28T02:40:56.097Z,96878.50
2023-05-28T02:43:25.278Z,96883.31
2023-05-28T02:45:54.814Z,96889.81
2023-05-28T02:48:27.659Z,96885.47
2023-05-28T02:50:57.022Z,96885.97
2023-05-28T02:53:44.496Z,96894.47
2023-05-28T02:56:13.651Z,96890.09
2023-05-28T02:58:47.527Z,96889.28
2023-05-28T03:01:18.616Z,96886.88
2023-05-28T03:03:47.884Z,96887.41
2023-05-28T03:06:18.202Z,96888.31
2023-05-28T03:08:56.185Z,96882.50
2023-05-28T03:11:25.452Z,96879.50
2023-05-28T03:13:54.489Z,96877.97
2023-05-28T03:16:26.448Z,96875.72
2023-05-28T03:18:56.110Z,96876.03
2023-05-28T03:21:25.257Z,96873.59
2023-05-28T03:23:54.437Z,96879.88
2023-05-28T03:26:31.262Z,96872.53
2023-05-28T03:29:00.264Z,96876.56
2023-05-28T03:31:51.658Z,96879.50
2023-05-28T03:34:23.372Z,96875.81
2023-05-28T03:36:52.834Z,96867.50
2023-05-28T03:39:23.729Z,96864.97
2023-05-28T03:41:54.622Z,96868.69
2023-05-28T03:44:29.499Z,96865.31
2023-05-28T03:46:59.396Z,96869.38
2023-05-28T03:49:28.462Z,96873.47
2023-05-28T03:51:57.855Z,96874.63
2023-05-28T03:54:29.244Z,96877.38
2023-05-28T03:56:59.007Z,96853.69
2023-05-28T03:59:27.970Z,96868.56
2023-05-28T04:01:57.780Z,96863.91
2023-05-28T04:04:27.378Z,96869.66
2023-05-28T04:06:56.988Z,96866.09
2023-05-28T04:09:26.272Z,96865.16
2023-05-28T04:11:57.510Z,96863.91
2023-05-28T04:14:27.445Z,96867.91
2023-05-28T04:16:56.539Z,96862.66
2023-05-28T04:19:26.481Z,96864.69
2023-05-28T04:21:55.444Z,96870.50
2023-05-28T04:24:27.798Z,96861.56
2023-05-28T04:26:58.660Z,96850.25
2023-05-28T04:29:30.627Z,96865.16
2023-05-28T04:31:59.660Z,96873.56
2023-05-28T04:34:28.930Z,96869.09
2023-05-28T04:36:58.315Z,96864.66
2023-05-28T04:39:28.228Z,96858.50
2023-05-28T04:41:57.385Z,96866.38
2023-05-28T04:44:27.366Z,96861.25
2023-05-28T04:47:00.528Z,96860.19
2023-05-28T04:49:29.611Z,96868.78
2023-05-28T04:51:58.589Z,96865.38
2023-05-28T04:54:28.354Z,96862.63
2023-05-28T04:56:57.255Z,96856.13
2023-05-28T04:59:26.927Z,96858.31
2023-05-28T05:01:56.709Z,96859.72
2023-05-28T05:04:28.250Z,96855.28
2023-05-28T05:06:58.184Z,96852.41
2023-05-28T05:09:28.844Z,96851.66
2023-05-28T05:11:57.904Z,96843.09
2023-05-28T05:14:26.955Z,96860.22
2023-05-28T05:16:58.399Z,96839.47
2023-05-28T05:19:27.310Z,96844.47
2023-05-28T05:21:56.378Z,96847.16
2023-05-28T05:24:25.441Z,96841.66
2023-05-28T05:26:54.322Z,96837.50
2023-05-28T05:29:23.989Z,96836.97
2023-05-28T05:31:53.127Z,96841.94
2023-05-28T05:34:22.200Z,96840.81
2023-05-28T05:37:11.352Z,96844.72
2023-05-28T05:40:08.071Z,96828.69
2023-05-28T05:42:55.068Z,96832.16
2023-05-28T05:45:24.148Z,96829.22
2023-05-28T05:47:54.739Z,96822.97
2023-05-28T05:50:24.042Z,96837.19
2023-05-28T05:52:54.162Z,96824.09
2023-05-28T05:55:23.602Z,96831.59
2023-05-28T05:57:52.974Z,96835.50
2023-05-28T06:00:25.233Z,96821.34
2023-05-28T06:02:58.277Z,96828.34
2023-05-28T06:05:46.386Z,96817.31
2023-05-28T06:08:38.107Z,96821.81
2023-05-28T06:11:17.414Z,96831.22
2023-05-28T06:13:46.897Z,96831.19
2023-05-28T06:16:15.926Z,96828.47
2023-05-28T06:18:44.856Z,96821.16
2023-05-28T06:21:14.532Z,96816.59
2023-05-28T06:23:43.878Z,96827.31
2023-05-28T06:26:14.066Z,96823.84
2023-05-28T06:28:42.840Z,96823.44
2023-05-28T06:31:11.965Z,96826.50
2023-05-28T06:33:40.998Z,96831.06
2023-05-28T06:36:10.074Z,96824.44
2023-05-28T06:38:39.034Z,96833.72
2023-05-28T06:41:09.135Z,96834.41
2023-05-28T06:43:46.033Z,96828.47
2023-05-28T06:46:35.415Z,96825.88
2023-05-28T06:49:04.669Z,96825.19
2023-05-28T06:51:33.731Z,96819.13
2023-05-28T06:54:02.841Z,96818.97
2023-05-28T06:56:34.036Z,96812.19
2023-05-28T06:59:23.304Z,96808.09
2023-05-28T07:02:06.299Z,96796.56
2023-05-28T07:04:58.593Z,96812.84
2023-05-28T07:07:34.006Z,96807.50
2023-05-28T07:10:03.133Z,96809.63
2023-05-28T07:12:34.649Z,96811.72
2023-05-28T07:15:05.646Z,96812.03
2023-05-28T07:17:35.463Z,96806.94
2023-05-28T07:20:06.596Z,96803.47
2023-05-28T07:22:50.824Z,96798.31
2023-05-28T07:25:20.402Z,96802.88
2023-05-28T07:27:49.258Z,96807.53
2023-05-28T07:30:25.790Z,96803.47
2023-05-28T07:32:58.113Z,96805.81
2023-05-28T07:35:27.939Z,96804.03
2023-05-28T07:37:57.535Z,96800.25
2023-05-28T07:40:26.547Z,96793.66
2023-05-28T07:43:01.649Z,96803.31
2023-05-28T07:45:30.480Z,96799.44
2023-05-28T07:47:59.597Z,96796.13
2023-05-28T07:51:00.852Z,96800.94
2023-05-28T07:53:47.813Z,96803.78
2023-05-28T07:56:23.756Z,96802.78
2023-05-28T07:58:54.240Z,96801.38
2023-05-28T08:01:25.636Z,96804.22
2023-05-28T08:03:56.229Z,96809.47
2023-05-28T08:06:34.759Z,96803.97
2023-05-28T08:09:05.408Z,96808.88
2023-05-28T08:11:34.443Z,96810.59
2023-05-28T08:14:03.880Z,96817.78
2023-05-28T08:16:33.872Z,96811.19
2023-05-28T08:19:25.931Z,96802.13
2023-05-28T08:21:57.677Z,96836.97
2023-05-28T08:24:26.926Z,96821.63
2023-05-28T08:26:57.264Z,96815.91
2023-05-28T08:29:28.523Z,96832.59
2023-05-28T08:32:03.302Z,96835.84
2023-05-28T08:34:39.876Z,96842.22
2023-05-28T08:37:09.165Z,96839.81
2023-05-28T08:39:58.310Z,96840.66
2023-05-28T08:42:29.339Z,96841.94
2023-05-28T08:44:58.446Z,96841.72
2023-05-28T08:47:38.637Z,96848.03
2023-05-28T08:50:16.937Z,96841.06
2023-05-28T08:53:04.311Z,96842.03
2023-05-28T08:55:33.475Z,96844.88
2023-05-28T08:58:22.971Z,96829.34
2023-05-28T09:00:54.550Z,96826.72
2023-05-28T09:03:29.549Z,96830.97
2023-05-28T09:06:05.781Z,96820.38
2023-05-28T09:08:36.032Z,96830.47
2023-05-28T09:11:20.140Z,96830.09
2023-05-28T09:13:52.248Z,96829.50
2023-05-28T09:16:26.009Z,96820.13
2023-05-28T09:19:08.460Z,96820.38
2023-05-28T09:21:40.626Z,96817.81
2023-05-28T09:24:15.729Z,96824.50
2023-05-28T09:27:13.987Z,96827.00
2023-05-28T09:29:43.760Z,96829.94
2023-05-28T09:32:12.777Z,96838.38
2023-05-28T09:34:46.288Z,96823.75
2023-05-28T09:37:18.701Z,96823.78
2023-05-28T09:39:47.591Z,96831.19
2023-05-28T09:42:16.563Z,96823.91
2023-05-28T09:47:18.411Z,96825.47
2023-05-28T09:49:48.535Z,96832.00
2023-05-28T09:52:22.577Z,96821.22
2023-05-28T09:54:53.883Z,96824.19
2023-05-28T09:57:28.732Z,96832.59
2023-05-28T09:59:58.308Z,96824.53
2023-05-28T10:02:43.265Z,96820.72
2023-05-28T10:05:15.722Z,96824.25
2023-05-28T10:07:47.360Z,96829.47
2023-05-28T10:10:17.698Z,96822.72
2023-05-28T10:12:47.630Z,96822.97
2023-05-28T10:15:16.958Z,96828.59
2023-05-28T10:17:46.149Z,96831.78
2023-05-28T10:20:16.386Z,96822.03
2023-05-28T10:22:45.674Z,96824.97
2023-05-28T10:25:15.639Z,96822.91
2023-05-28T10:27:50.409Z,96815.53
2023-05-28T10:30:39.446Z,96827.19
2023-05-28T10:33:21.940Z,96825.88
2023-05-28T10:35:56.959Z,96820.72
2023-05-28T10:38:26.849Z,96818.47
2023-05-28T10:41:05.878Z,96818.69
2023-05-28T10:43:39.578Z,96816.63
2023-05-28T10:46:19.667Z,96812.72
2023-05-28T10:49:09.839Z,96817.91
2023-05-28T10:51:59.659Z,96810.06
2023-05-28T10:54:31.645Z,96813.16
2023-05-28T10:57:13.477Z,96812.06
2023-05-28T10:59:53.588Z,96815.59
2023-05-28T11:02:25.062Z,96818.69
2023-05-28T11:05:01.134Z,96809.31
2023-05-28T11:07:35.741Z,96816.28
2023-05-28T11:10:07.680Z,96816.47
2023-05-28T11:12:38.855Z,96810.06
2023-05-28T11:15:10.085Z,96820.03
2023-05-28T11:17:40.174Z,96820.91
2023-05-28T11:20:29.207Z,96816.66
2023-05-28T11:22:58.328Z,96827.97
2023-05-28T11:25:27.321Z,96830.38
2023-05-28T11:27:59.222Z,96832.34
2023-05-28T11:30:28.284Z,96832.69
2023-05-28T11:32:57.335Z,96838.16
2023-05-28T11:35:28.164Z,96832.22
2023-05-28T11:38:02.380Z,96834.94
2023-05-28T11:40:36.435Z,96827.97
2023-05-28T11:43:06.281Z,96834.94
2023-05-28T11:45:39.487Z,96829.13
2023-05-28T11:48:14.215Z,96823.25
2023-05-28T11:50:43.227Z,96827.97
2023-05-28T11:53:12.820Z,96823.25
2023-05-28T11:55:41.848Z,96824.88
2023-05-28T11:58:10.854Z,96829.53
2023-05-28T12:00:43.453Z,96827.94
2023-05-28T12:03:13.508Z,96827.59
2023-05-28T12:05:42.543Z,96824.91
2023-05-28T12:08:13.956Z,96821.81
2023-05-28T12:10:42.998Z,96830.44
2023-05-28T12:13:14.538Z,96827.72
2023-05-28T12:15:44.203Z,96833.19
2023-05-28T12:18:14.150Z,96832.03
2023-05-28T12:20:46.853Z,96830.53
2023-05-28T12:23:15.885Z,96832.91
2023-05-28T12:25:44.912Z,96831.41
2023-05-28T12:28:15.252Z,96832.56
2023-05-28T12:30:45.609Z,96820.16
2023-05-28T12:33:14.628Z,96833.03
2023-05-28T12:35:43.594Z,96835.00
2023-05-28T12:38:13.822Z,96831.91
2023-05-28T12:40:42.927Z,96837.00
2023-05-28T12:43:12.010Z,96839.38
2023-05-28T12:45:41.300Z,96836.28
2023-05-28T12:48:10.598Z,96839.78
2023-05-28T12:50:39.716Z,96845.28
2023-05-28T12:53:08.961Z,96824.66
2023-05-28T12:55:38.269Z,96850.78
2023-05-28T12:58:07.230Z,96846.53
2023-05-28T13:00:37.094Z,96842.63
2023-05-28T13:03:07.111Z,96833.31
2023-05-28T13:05:36.092Z,96836.03
2023-05-28T13:08:05.455Z,96853.16
2023-05-28T13:10:34.531Z,96855.88
2023-05-28T13:13:03.763Z,96854.69
2023-05-28T13:15:32.691Z,96849.22
2023-05-28T13:18:01.597Z,96851.97
2023-05-28T13:20:30.824Z,96863.59
2023-05-28T13:23:00.143Z,96858.91
2023-05-28T13:25:29.069Z,96868.19
2023-05-28T13:27:58.673Z,96852.59
2023-05-28T13:30:28.543Z,96868.91
2023-05-28T13:32:57.530Z,96879.41
2023-05-28T13:35:26.529Z,96864.22
2023-05-28T13:37:57.598Z,96878.53
2023-05-28T13:40:29.829Z,96870.72
2023-05-28T13:42:58.965Z,96871.41
2023-05-28T13:45:27.968Z,96879.16
2023-05-28T13:47:57.236Z,96880.28
2023-05-28T13:50:26.247Z,96882.59
2023-05-28T13:52:55.225Z,96885.63
2023-05-28T13:55:24.337Z,96883.56
2023-05-28T13:57:53.901Z,96892.50
2023-05-28T14:00:37.926Z,96883.09
2023-05-28T14:03:09.799Z,96896.69
2023-05-28T14:05:41.662Z,96895.50
2023-05-28T14:08:13.810Z,96884.09
2023-05-28T14:10:42.862Z,96898.84
2023-05-28T14:13:11.902Z,96899.63
2023-05-28T14:15:40.976Z,96905.81
2023-05-28T14:18:11.830Z,96909.28
2023-05-28T14:20:42.494Z,96910.75
2023-05-28T14:23:11.654Z,96907.13
2023-05-28T14:25:40.692Z,96901.56
2023-05-28T14:28:12.237Z,96905.47
2023-05-28T14:30:41.858Z,96912.41
2023-05-28T14:33:13.913Z,96907.25
2023-05-28T14:35:42.886Z,96911.88
2023-05-28T14:38:11.925Z,96920.06
2023-05-28T14:40:40.944Z,96920.38
2023-05-28T14:43:09.824Z,96913.75
2023-05-28T14:45:38.801Z,96920.22
2023-05-28T14:48:08.076Z,96919.75
2023-05-28T14:50:37.309Z,96917.03
2023-05-28T14:53:06.445Z,96924.34
2023-05-28T14:55:35.559Z,96917.72
2023-05-28T14:58:04.499Z,96913.81
2023-05-28T15:00:34.641Z,96910.16
2023-05-28T15:03:03.983Z,96920.28
2023-05-28T15:05:33.026Z,96912.88
2023-05-28T15:08:02.431Z,96917.47
2023-05-28T15:10:31.520Z,96926.81
2023-05-28T15:13:00.464Z,96916.78
2023-05-28T15:15:29.598Z,96922.66
2023-05-28T15:17:58.765Z,96916.72
2023-05-28T15:20:28.153Z,96908.13
2023-05-28T15:22:57.041Z,96923.28
2023-05-28T15:25:26.286Z,96918.91
2023-05-28T15:27:55.435Z,96933.59
2023-05-28T15:30:25.030Z,96928.19
2023-05-28T15:32:59.330Z,96931.53
2023-05-28T15:35:29.444Z,96928.69
2023-05-28T15:37:59.341Z,96929.38
2023-05-28T15:40:31.720Z,96916.88
2023-05-28T15:43:06.607Z,96927.38
2023-05-28T15:45:36.044Z,96928.81
2023-05-28T15:48:05.071Z,96926.41
2023-05-28T15:50:35.380Z,96929.13
2023-05-28T15:53:04.571Z,96934.84
2023-05-28T15:55:33.830Z,96930.59
2023-05-28T15:58:03.027Z,96934.44
2023-05-28T16:00:33.491Z,96936.31
2023-05-28T16:03:14.801Z,96927.66
2023-05-28T16:05:44.233Z,96934.19
2023-05-28T16:08:14.261Z,96928.66
2023-05-28T16:10:43.316Z,96927.16
2023-05-28T16:13:15.495Z,96925.22
2023-05-28T16:15:44.867Z,96922.47
2023-05-28T16:18:15.190Z,96923.63
2023-05-28T16:20:46.967Z,96928.97
2023-05-28T16:23:16.322Z,96922.97
2023-05-28T16:25:45.571Z,96933.00
2023-05-28T16:28:14.666Z,96921.38
2023-05-28T16:30:44.797Z,96928.56
2023-05-28T16:33:14.306Z,96925.06
2023-05-28T16:35:44.335Z,96932.00
2023-05-28T16:38:13.510Z,96921.03
2023-05-28T16:40:43.002Z,96924.53
2023-05-28T16:43:12.876Z,96930.91
2023-05-28T16:45:42.002Z,96924.75
2023-05-28T16:48:12.330Z,96932.13
2023-05-28T16:50:42.411Z,96925.50
2023-05-28T16:53:13.074Z,96919.22
2023-05-28T16:55:42.651Z,96923.88
2023-05-28T16:58:11.750Z,96929.28
2023-05-28T17:00:41.789Z,96925.97
2023-05-28T17:03:11.327Z,96941.06
2023-05-28T17:05:40.513Z,96932.47
2023-05-28T17:08:09.354Z,96931.25
2023-05-28T17:10:40.104Z,96929.28
2023-05-28T17:13:09.174Z,96932.75
2023-05-28T17:15:38.023Z,96938.16
2023-05-28T17:18:12.002Z,96939.66
2023-05-28T17:20:41.325Z,96937.72
2023-05-28T17:23:11.057Z,96925.28
2023-05-28T17:25:40.778Z,96921.81
2023-05-28T17:28:09.587Z,96930.25
2023-05-28T17:30:38.524Z,96926.78
2023-05-28T17:33:07.559Z,96927.50
2023-05-28T17:35:36.573Z,96933.28
2023-05-28T17:38:06.367Z,96920.00
2023-05-28T17:40:35.359Z,96930.06
2023-05-28T17:43:05.124Z,96927.06
2023-05-28T17:45:35.149Z,96921.88
2023-05-28T17:48:04.901Z,96926.56
2023-05-28T17:50:36.374Z,96923.00
2023-05-28T17:53:06.701Z,96918.72
2023-05-28T17:55:36.918Z,96910.56
2023-05-28T17:58:05.773Z,96912.91
2023-05-28T18:00:35.040Z,96914.88
2023-05-28T18:03:05.737Z,96915.31
2023-05-28T18:05:34.959Z,96917.59
2023-05-28T18:08:03.931Z,96920.09
2023-05-28T18:10:33.013Z,96920.25
2023-05-28T18:13:01.958Z,96927.31
2023-05-28T18:15:32.642Z,96917.25
2023-05-28T18:18:02.041Z,96915.28
2023-05-28T18:20:31.486Z,96914.06
2023-05-28T18:23:00.404Z,96910.16
2023-05-28T18:25:30.752Z,96910.50
2023-05-28T18:27:59.761Z,96906.94
2023-05-28T18:30:29.185Z,96914.03
2023-05-28T18:32:58.120Z,96907.06
2023-05-28T18:35:27.181Z,96909.97
2023-05-28T18:37:56.406Z,96910.97
2023-05-28T18:40:25.491Z,96901.63
2023-05-28T18:42:55.210Z,96907.16
2023-05-28T18:45:24.163Z,96899.53
2023-05-28T18:47:53.206Z,96893.88
2023-05-28T18:50:22.281Z,96888.84
2023-05-28T18:52:51.417Z,96898.94
2023-05-28T18:55:22.734Z,96890.72
2023-05-28T18:57:51.683Z,96900.31
2023-05-28T19:00:21.482Z,96892.56
2023-05-28T19:02:51.010Z,96893.09
2023-05-28T19:05:20.511Z,96889.81
2023-05-28T19:07:49.784Z,96900.88
2023-05-28T19:10:18.678Z,96896.91
2023-05-28T19:12:48.133Z,96891.34
2023-05-28T19:15:17.450Z,96891.34
2023-05-28T19:17:46.663Z,96889.69
2023-05-28T19:20:15.866Z,96896.22
2023-05-28T19:22:45.560Z,96892.81
2023-05-28T19:25:14.609Z,96880.13
2023-05-28T19:27:43.525Z,96887.00
2023-05-28T19:30:12.864Z,96885.50
2023-05-28T19:32:41.825Z,96884.47
2023-05-28T19:35:11.213Z,96888.72
2023-05-28T19:37:51.329Z,96890.84
2023-05-28T19:40:20.433Z,96872.78
2023-05-28T19:42:49.411Z,96883.56
2023-05-28T19:45:18.270Z,96879.75
2023-05-28T19:47:47.410Z,96888.16
2023-05-28T19:50:16.383Z,96885.28
2023-05-28T19:52:45.346Z,96879.03
2023-05-28T19:55:14.604Z,96889.47
2023-05-28T19:57:43.473Z,96890.41
2023-05-28T20:00:16.933Z,96887.84
2023-05-28T20:02:46.321Z,96885.06
2023-05-28T20:05:15.351Z,96890.59
2023-05-28T20:07:44.352Z,96882.84
2023-05-28T20:10:13.287Z,96879.97
2023-05-28T20:12:42.278Z,96889.50
2023-05-28T20:15:11.915Z,96875.31
2023-05-28T20:17:40.928Z,96879.63
2023-05-28T20:20:12.294Z,96887.59
2023-05-28T20:22:41.239Z,96874.44
2023-05-28T20:25:10.487Z,96861.88
2023-05-28T20:27:39.610Z,96888.44
2023-05-28T20:30:08.963Z,96876.09
2023-05-28T20:32:37.863Z,96882.28
2023-05-28T20:35:07.706Z,96879.03
2023-05-28T20:37:39.575Z,96888.97
2023-05-28T20:40:12.355Z,96890.88
2023-05-28T20:42:41.467Z,96880.25
2023-05-28T20:45:10.884Z,96877.13
2023-05-28T20:47:39.864Z,96886.44
2023-05-28T20:50:09.324Z,96884.41
2023-05-28T20:52:38.308Z,96883.63
2023-05-28T20:55:10.087Z,96879.38
2023-05-28T20:57:49.951Z,96878.94
2023-05-28T21:00:23.446Z,96880.41
2023-05-28T21:02:55.332Z,96879.94
2023-05-28T21:05:25.401Z,96882.84
2023-05-28T21:07:54.435Z,96882.06
2023-05-28T21:10:24.180Z,96878.81
2023-05-28T21:12:55.125Z,96862.78
2023-05-28T21:15:26.857Z,96861.31
2023-05-28T21:17:56.607Z,96860.19
2023-05-28T21:20:25.741Z,96873.28
2023-05-28T21:22:57.451Z,96871.28
2023-05-28T21:25:33.358Z,96881.72
2023-05-28T21:28:02.350Z,96874.75
2023-05-28T21:30:35.324Z,96876.22
2023-05-28T21:33:05.052Z,96878.91
2023-05-28T21:35:34.072Z,96883.50
2023-05-28T21:38:02.941Z,96880.72
2023-05-28T21:40:31.793Z,96879.72
2023-05-28T21:43:00.996Z,96876.56
2023-05-28T21:45:29.969Z,96883.19
2023-05-28T21:47:59.038Z,96879.50
2023-05-28T21:50:30.913Z,96883.72
2023-05-28T21:53:03.829Z,96880.38
2023-05-28T21:55:32.713Z,96872.03
2023-05-28T21:58:01.998Z,96869.59
2023-05-28T22:00:32.811Z,96864.56
2023-05-28T22:03:02.337Z,96882.91
2023-05-28T22:05:34.556Z,96861.34
2023-05-28T22:08:04.595Z,96871.78
2023-05-28T22:10:41.258Z,96875.84
2023-05-28T22:13:12.990Z,96860.25
2023-05-28T22:15:42.021Z,96861.59
2023-05-28T22:18:11.149Z,96866.56
2023-05-28T22:20:43.926Z,96871.75
2023-05-28T22:23:13.722Z,96872.75
2023-05-28T22:25:43.544Z,96879.94
2023-05-28T22:28:13.798Z,96878.03
2023-05-28T22:30:43.490Z,96863.34
2023-05-28T22:33:14.504Z,96870.03
2023-05-28T22:35:44.974Z,96873.69
2023-05-28T22:38:14.240Z,96866.41
2023-05-28T22:40:43.193Z,96868.13
2023-05-28T22:43:12.139Z,96856.91
2023-05-28T22:45:41.357Z,96858.63
2023-05-28T22:48:10.597Z,96876.53
2023-05-28T22:50:39.590Z,96876.63
2023-05-28T22:53:11.203Z,96849.38
2023-05-28T22:55:40.792Z,96852.75
2023-05-28T22:58:12.498Z,96880.69
2023-05-28T23:00:45.645Z,96872.59
2023-05-28T23:03:15.617Z,96880.00
2023-05-28T23:05:46.495Z,96864.94
2023-05-28T23:08:15.481Z,96875.03
2023-05-28T23:10:45.044Z,96876.00
2023-05-28T23:13:14.006Z,96871.94
2023-05-28T23:15:50.851Z,96863.84
2023-05-28T23:18:22.403Z,96867.22
2023-05-28T23:20:52.865Z,96880.81
2023-05-28T23:23:23.065Z,96877.16
2023-05-28T23:25:52.922Z,96872.63
2023-05-28T23:28:22.312Z,96870.44
2023-05-28T23:30:53.863Z,96873.09
2023-05-28T23:33:23.147Z,96854.47
2023-05-28T23:35:52.666Z,96875.69
2023-05-28T23:38:22.305Z,96868.38
2023-05-28T23:40:51.525Z,96876.06
2023-05-28T23:43:20.412Z,96870.00
2023-05-28T23:45:50.126Z,96875.94
2023-05-28T23:48:19.201Z,96877.22
2023-05-28T23:50:49.766Z,96873.38
2023-05-28T23:53:18.645Z,96857.78
2023-05-28T23:55:47.553Z,96855.06
2023-05-28T23:58:16.998Z,96862.31
